Time;durP1;ratioP1;P1;durP2;ratioP2;P2;SDS_P1;SDS_P2;PMS_P1;PMS_P2;Temp;Humidity;BMP_temperature;BMP_pressure;BME280_temperature;BME280_humidity;BME280_pressure;Samples;Min_cycle;Max_cycle;Signal;HPM_P1;HPM_P2
2022/09/10 00:00:35;;;;;;;9.43;4.38;;;;;;;15.82;100.00;100838.38;5286842;28;20021;-71
2022/09/10 00:03:07;;;;;;;10.32;4.22;;;;;;;15.76;100.00;100835.59;5280895;28;20519;-71
2022/09/10 00:05:43;;;;;;;7.65;4.22;;;;;;;15.84;100.00;100835.59;5292001;28;20037;-71
2022/09/10 00:08:16;;;;;;;10.25;4.40;;;;;;;15.77;100.00;100829.31;5282393;28;20021;-71
2022/09/10 00:10:50;;;;;;;7.95;3.85;;;;;;;15.76;100.00;100833.78;5291611;28;20040;-71
2022/09/10 00:13:22;;;;;;;8.95;4.18;;;;;;;15.79;100.00;100832.59;5287062;28;20029;-71
2022/09/10 00:15:53;;;;;;;8.93;4.47;;;;;;;15.78;100.00;100829.16;5288505;28;20035;-71
2022/09/10 00:18:25;;;;;;;8.77;4.22;;;;;;;15.80;100.00;100821.06;5290552;28;20028;-71
2022/09/10 00:20:58;;;;;;;10.23;4.60;;;;;;;15.78;100.00;100826.50;5286635;28;20023;-71
2022/09/10 00:23:29;;;;;;;10.52;3.97;;;;;;;15.74;100.00;100822.53;5282074;28;20032;-71
2022/09/10 00:26:08;;;;;;;12.20;4.20;;;;;;;15.89;100.00;100824.53;5285986;28;20039;-71
2022/09/10 00:28:41;;;;;;;9.77;4.07;;;;;;;15.74;100.00;100825.19;5287861;28;20024;-71
2022/09/10 00:31:13;;;;;;;6.78;3.90;;;;;;;15.76;100.00;100825.03;5289843;28;20019;-71
2022/09/10 00:33:44;;;;;;;12.68;4.38;;;;;;;15.70;100.00;100821.22;5291062;28;20044;-71
2022/09/10 00:36:27;;;;;;;7.57;3.83;;;;;;;15.89;100.00;100821.88;5289061;28;20069;-71
2022/09/10 00:39:01;;;;;;;13.35;4.80;;;;;;;15.72;100.00;100815.75;5291972;28;20035;-71
2022/09/10 00:41:35;;;;;;;7.00;4.00;;;;;;;15.72;100.00;100827.19;5284231;28;20036;-71
2022/09/10 00:44:36;;;;;;;9.93;4.65;;;;;;;15.95;100.00;100827.34;5287766;28;20047;-71
2022/09/10 00:47:25;;;;;;;11.13;5.00;;;;;;;15.79;100.00;100824.69;5280196;28;20028;-71
2022/09/10 00:50:19;;;;;;;14.23;5.03;;;;;;;15.81;100.00;100814.78;5287773;28;20037;-71
2022/09/10 00:52:53;;;;;;;8.93;4.53;;;;;;;15.78;100.00;100817.75;5285072;28;20044;-71
2022/09/10 00:55:24;;;;;;;7.82;4.60;;;;;;;15.73;100.00;100826.19;5285463;28;20581;-71
2022/09/10 00:58:00;;;;;;;9.55;4.63;;;;;;;15.81;100.00;100817.44;5288408;28;20052;-71
2022/09/10 01:00:32;;;;;;;10.77;5.05;;;;;;;15.76;100.00;100830.31;5292727;28;20020;-71
2022/09/10 01:03:06;;;;;;;9.20;4.90;;;;;;;15.80;100.00;100826.34;5284040;28;20805;-71
2022/09/10 01:05:42;;;;;;;8.05;4.88;;;;;;;15.76;100.00;100825.84;5282862;28;20020;-71
2022/09/10 01:08:15;;;;;;;11.00;4.88;;;;;;;15.80;100.00;100836.91;5281453;28;20031;-71
2022/09/10 01:10:52;;;;;;;;;;;;;;;16.41;100.00;100837.38;5287394;28;20044;-71
2022/09/10 01:13:51;;;;;;;11.07;5.03;;;;;;;16.12;100.00;100832.63;5285613;28;19913;-71
2022/09/10 01:16:22;;;;;;;15.68;5.68;;;;;;;15.90;100.00;100842.03;5286501;28;20119;-71
2022/09/10 01:19:19;;;;;;;8.00;4.83;;;;;;;16.01;100.00;100839.06;5288236;28;20107;-71
2022/09/10 01:22:12;;;;;;;7.93;5.55;;;;;;;16.00;100.00;100832.13;5287395;28;20328;-71
2022/09/10 01:24:54;;;;;;;10.38;5.60;;;;;;;16.08;100.00;100833.94;5282695;28;20111;-71
2022/09/10 01:27:34;;;;;;;11.40;6.13;;;;;;;15.98;100.00;100839.38;5282222;28;20036;-71
2022/09/10 01:30:10;;;;;;;13.05;5.50;;;;;;;16.04;100.00;100830.81;5285553;28;20032;-70
2022/09/10 01:33:15;;;;;;;9.93;5.32;;;;;;;16.21;100.00;100828.97;5286724;28;20375;-71
2022/09/10 01:35:53;;;;;;;10.68;5.18;;;;;;;16.09;100.00;100835.59;5291337;28;20028;-71
2022/09/10 01:38:37;;;;;;;10.50;5.82;;;;;;;16.12;100.00;100830.78;5286463;28;20413;-71
2022/09/10 01:41:09;;;;;;;11.43;6.22;;;;;;;16.03;100.00;100826.53;5285658;28;20177;-70
2022/09/10 01:43:40;;;;;;;11.00;6.20;;;;;;;16.02;100.00;100832.78;5289586;28;20123;-70
2022/09/10 01:46:24;;;;;;;11.63;6.40;;;;;;;16.04;100.00;100822.88;5282934;28;20478;-70
2022/09/10 01:48:58;;;;;;;;;;;;;;;16.61;100.00;100827.25;5280785;28;20489;-71
2022/09/10 01:51:56;;;;;;;11.85;6.05;;;;;;;16.32;100.00;100830.44;5288062;28;19916;-71
2022/09/10 01:55:01;;;;;;;10.95;7.35;;;;;;;16.27;100.00;100834.41;5291617;28;20127;-70
2022/09/10 01:57:46;;;;;;;10.35;6.45;;;;;;;16.16;100.00;100833.94;5284739;28;20036;-70
2022/09/10 02:00:18;;;;;;;14.15;6.30;;;;;;;16.02;100.00;100823.06;5283397;28;20009;-70
2022/09/10 02:03:12;;;;;;;14.32;6.75;;;;;;;16.30;100.00;100831.44;5287607;28;20044;-71
2022/09/10 02:05:48;;;;;;;16.83;7.00;;;;;;;16.10;100.00;100831.94;5289564;28;20032;-71
2022/09/10 02:08:29;;;;;;;11.93;6.82;;;;;;;16.15;100.00;100825.19;5283793;28;20508;-71
2022/09/10 02:11:08;;;;;;;11.25;6.93;;;;;;;16.11;100.00;100820.41;5287643;28;20036;-71
2022/09/10 02:13:41;;;;;;;11.68;6.70;;;;;;;16.10;100.00;100824.88;5282847;28;20873;-71
2022/09/10 02:16:24;;;;;;;16.33;7.00;;;;;;;16.21;100.00;100824.53;5277831;28;20035;-71
2022/09/10 02:18:56;;;;;;;;;;;;;;;16.71;100.00;100812.00;5291289;28;20012;-71
2022/09/10 02:21:28;;;;;;;19.48;7.40;;;;;;;16.10;100.00;100806.38;5285956;28;20400;-71
2022/09/10 02:24:04;;;;;;;13.18;6.38;;;;;;;16.22;100.00;100814.78;5284687;28;20024;-71
2022/09/10 02:26:40;;;;;;;12.10;6.95;;;;;;;16.20;100.00;100817.56;5276766;28;20046;-71
2022/09/10 02:29:13;;;;;;;13.93;7.10;;;;;;;16.14;100.00;100815.59;5288586;28;20043;-71
2022/09/10 02:31:46;;;;;;;12.50;7.38;;;;;;;16.16;100.00;100810.13;5287026;28;20037;-71
2022/09/10 02:34:19;;;;;;;14.35;6.97;;;;;;;16.19;100.00;100815.91;5284513;28;20420;-71
2022/09/10 02:36:50;;;;;;;;;;;;;;;16.74;100.00;100809.03;5284446;28;20024;-71
2022/09/10 02:39:21;;;;;;;13.67;7.13;;;;;;;16.23;100.00;100814.59;5280188;28;19912;-71
2022/09/10 02:41:52;;;;;;;11.52;7.05;;;;;;;16.22;100.00;100806.84;5287411;28;20012;-71
2022/09/10 02:44:26;;;;;;;12.57;7.15;;;;;;;16.21;100.00;100813.94;5287671;28;20063;-71
2022/09/10 02:46:57;;;;;;;11.90;6.72;;;;;;;16.19;100.00;100801.88;5287318;28;20455;-71
2022/09/10 02:49:29;;;;;;;11.75;7.78;;;;;;;16.19;100.00;100807.16;5289875;28;20039;-71
2022/09/10 02:52:01;;;;;;;13.57;7.20;;;;;;;16.22;100.00;100809.47;5286136;28;20131;-71
2022/09/10 02:54:33;;;;;;;12.48;6.75;;;;;;;16.22;100.00;100815.59;5282507;28;20040;-71
2022/09/10 02:57:04;;;;;;;13.20;7.30;;;;;;;16.18;100.00;100805.53;5287018;28;20413;-71
2022/09/10 02:59:35;;;;;;;14.82;7.70;;;;;;;16.24;100.00;100805.66;5282169;28;20440;-71
2022/09/10 03:02:07;;;;;;;12.38;7.60;;;;;;;16.20;100.00;100803.53;5279457;28;20518;-72
2022/09/10 03:04:38;;;;;;;15.40;7.70;;;;;;;16.26;100.00;100811.63;5285588;28;20493;-72
2022/09/10 03:07:10;;;;;;;12.40;7.80;;;;;;;16.27;100.00;100815.91;5286531;28;20025;-72
2022/09/10 03:09:42;;;;;;;12.87;7.20;;;;;;;16.24;100.00;100803.03;5286380;28;20111;-72
2022/09/10 03:12:15;;;;;;;15.57;7.43;;;;;;;16.29;100.00;100813.94;5286391;28;20385;-72
2022/09/10 03:14:46;;;;;;;;;;;;;;;16.87;100.00;100809.31;5282684;28;20481;-72
2022/09/10 03:17:17;;;;;;;14.87;7.67;;;;;;;16.37;100.00;100815.72;5283589;28;19918;-71
2022/09/10 03:19:49;;;;;;;12.88;8.10;;;;;;;16.34;100.00;100809.97;5286514;28;20035;-71
2022/09/10 03:22:20;;;;;;;13.05;8.07;;;;;;;16.31;100.00;100816.41;5288046;28;20027;-71
2022/09/10 03:24:52;;;;;;;15.38;8.07;;;;;;;16.34;100.00;100810.78;5281917;28;20040;-71
2022/09/10 03:27:24;;;;;;;14.20;8.32;;;;;;;16.33;100.00;100810.94;5285025;28;20451;-71
2022/09/10 03:29:55;;;;;;;16.70;9.20;;;;;;;16.35;100.00;100808.97;5280709;28;20025;-71
2022/09/10 03:32:26;;;;;;;14.18;8.25;;;;;;;16.34;100.00;100808.13;5283413;28;20074;-71
2022/09/10 03:34:58;;;;;;;16.95;9.30;;;;;;;16.35;100.00;100809.78;5282232;28;20051;-71
2022/09/10 03:37:30;;;;;;;15.70;8.48;;;;;;;16.35;100.00;100814.25;5286545;28;20477;-71
2022/09/10 03:40:02;;;;;;;16.77;9.88;;;;;;;16.40;100.00;100801.34;5283072;28;20067;-71
2022/09/10 03:42:33;;;;;;;12.40;9.35;;;;;;;16.39;100.00;100802.34;5288771;28;20035;-71
2022/09/10 03:45:05;;;;;;;15.63;9.20;;;;;;;16.39;100.00;100797.03;5287479;28;20082;-71
2022/09/10 03:47:36;;;;;;;15.35;10.10;;;;;;;16.37;100.00;100804.34;5281972;28;20035;-71
2022/09/10 03:50:08;;;;;;;16.10;10.48;;;;;;;16.34;100.00;100796.75;5286900;28;20058;-71
2022/09/10 03:52:39;;;;;;;15.55;9.93;;;;;;;16.35;100.00;100801.03;5286120;28;20099;-71
2022/09/10 03:55:11;;;;;;;13.20;10.05;;;;;;;16.35;100.00;100801.03;5278798;28;20101;-71
2022/09/10 03:57:42;;;;;;;17.73;9.95;;;;;;;16.35;100.00;100803.66;5281310;28;20024;-71
2022/09/10 04:00:14;;;;;;;13.90;9.55;;;;;;;16.35;100.00;100808.97;5281062;28;20492;-71
2022/09/10 04:02:45;;;;;;;17.75;9.68;;;;;;;16.34;100.00;100805.50;5281617;28;20051;-71
2022/09/10 04:05:17;;;;;;;11.65;9.32;;;;;;;16.37;100.00;100797.22;5281699;28;20020;-71
2022/09/10 04:07:49;;;;;;;15.50;10.18;;;;;;;16.37;100.00;100793.75;5278716;28;20064;-71
2022/09/10 04:10:20;;;;;;;15.07;9.45;;;;;;;16.36;100.00;100790.25;5283146;28;20071;-71
2022/09/10 04:12:52;;;;;;;13.88;10.00;;;;;;;16.36;100.00;100786.81;5280126;28;20024;-71
2022/09/10 04:15:24;;;;;;;14.30;9.75;;;;;;;16.31;100.00;100784.66;5283544;28;20034;-71
2022/09/10 04:17:55;;;;;;;17.33;10.50;;;;;;;16.34;100.00;100783.50;5291707;28;20036;-71
2022/09/10 04:20:27;;;;;;;16.83;9.93;;;;;;;16.44;100.00;100792.91;5287485;28;20424;-71
2022/09/10 04:22:59;;;;;;;16.92;9.70;;;;;;;16.44;100.00;100797.34;5287713;28;20035;-71
2022/09/10 04:25:30;;;;;;;12.77;9.87;;;;;;;16.42;100.00;100788.78;5283008;28;20028;-71
2022/09/10 04:28:02;;;;;;;14.32;9.85;;;;;;;16.41;100.00;100787.97;5288595;28;20586;-71
2022/09/10 04:30:33;;;;;;;17.48;10.55;;;;;;;16.34;100.00;100776.41;5286087;28;20052;-71
2022/09/10 04:33:05;;;;;;;14.05;9.98;;;;;;;16.41;100.00;100784.50;5293172;28;20035;-72
2022/09/10 04:35:38;;;;;;;13.73;10.60;;;;;;;16.42;100.00;100786.13;5284293;28;20029;-71
2022/09/10 04:38:09;;;;;;;20.48;9.95;;;;;;;16.43;100.00;100787.78;5287688;28;20036;-71
2022/09/10 04:40:42;;;;;;;15.15;10.25;;;;;;;16.44;100.00;100784.97;5288205;28;20035;-71
2022/09/10 04:43:14;;;;;;;13.45;10.07;;;;;;;16.40;100.00;100793.41;5282539;28;20038;-72
2022/09/10 04:45:45;;;;;;;18.30;11.20;;;;;;;16.40;100.00;100791.59;5290554;28;20032;-71
2022/09/10 04:48:17;;;;;;;17.58;10.13;;;;;;;16.41;100.00;100792.44;5291135;28;20016;-72
2022/09/10 04:50:49;;;;;;;16.48;10.95;;;;;;;16.35;100.00;100782.50;5287123;28;20033;-72
2022/09/10 04:53:21;;;;;;;17.05;10.95;;;;;;;16.40;100.00;100793.41;5289987;28;20504;-72
2022/09/10 04:55:54;;;;;;;16.85;11.23;;;;;;;16.43;100.00;100796.53;5293737;28;20062;-72
2022/09/10 04:58:25;;;;;;;17.13;10.88;;;;;;;16.39;100.00;100792.56;5287718;28;20111;-72
2022/09/10 05:00:57;;;;;;;14.82;11.15;;;;;;;16.40;100.00;100796.91;5285002;28;20107;-72
2022/09/10 05:03:28;;;;;;;14.18;10.38;;;;;;;16.45;100.00;100797.19;5289600;28;20110;-72
2022/09/10 05:05:59;;;;;;;15.25;11.15;;;;;;;16.45;100.00;100799.03;5291559;28;20078;-72
2022/09/10 05:08:31;;;;;;;18.42;12.45;;;;;;;16.41;100.00;100793.25;5287718;28;20016;-72
2022/09/10 05:11:02;;;;;;;14.57;10.77;;;;;;;16.44;100.00;100803.50;5275025;28;20075;-72
2022/09/10 05:13:33;;;;;;;18.75;12.07;;;;;;;16.45;100.00;100799.84;5289780;28;20067;-72
2022/09/10 05:16:05;;;;;;;14.23;11.38;;;;;;;16.47;100.00;100797.84;5288550;28;20155;-72
2022/09/10 05:18:37;;;;;;;17.50;11.77;;;;;;;16.44;100.00;100797.34;5287285;28;20103;-72
2022/09/10 05:21:09;;;;;;;15.48;11.35;;;;;;;16.44;100.00;100792.91;5288240;28;20161;-72
2022/09/10 05:23:40;;;;;;;20.10;13.50;;;;;;;16.44;100.00;100802.63;5287698;28;20027;-72
2022/09/10 05:26:11;;;;;;;15.95;12.15;;;;;;;16.49;100.00;100802.97;5285523;28;20806;-72
2022/09/10 05:28:43;;;;;;;16.30;12.75;;;;;;;16.47;100.00;100799.66;5287933;28;20062;-72
2022/09/10 05:31:15;;;;;;;20.40;13.45;;;;;;;16.47;100.00;100791.72;5288200;28;20063;-72
2022/09/10 05:33:46;;;;;;;19.97;13.27;;;;;;;16.53;100.00;100797.16;5288958;28;20021;-72
2022/09/10 05:36:17;;;;;;;17.65;12.85;;;;;;;16.47;100.00;100789.09;5287181;28;20302;-72
2022/09/10 05:38:49;;;;;;;15.23;13.15;;;;;;;16.58;100.00;100799.31;5288263;28;20020;-72
2022/09/10 05:41:22;;;;;;;16.25;13.85;;;;;;;16.55;100.00;100804.94;5285316;28;20029;-72
2022/09/10 05:43:53;;;;;;;20.13;14.38;;;;;;;16.55;100.00;100794.34;5286857;28;20032;-72
2022/09/10 05:46:26;;;;;;;16.98;13.27;;;;;;;16.62;100.00;100805.06;5275802;28;20507;-72
2022/09/10 05:48:57;;;;;;;15.33;13.57;;;;;;;16.62;100.00;100794.50;5287382;28;20028;-72
2022/09/10 05:51:29;;;;;;;17.45;13.75;;;;;;;16.65;100.00;100796.81;5286523;28;20043;-72
2022/09/10 05:54:01;;;;;;;18.95;14.75;;;;;;;16.62;100.00;100805.91;5285944;28;20032;-72
2022/09/10 05:56:33;;;;;;;16.45;14.43;;;;;;;16.64;100.00;100809.22;5291027;28;20028;-72
2022/09/10 05:59:04;;;;;;;18.42;15.13;;;;;;;16.66;100.00;100807.19;5288537;28;20190;-72
2022/09/10 06:01:36;;;;;;;22.02;15.75;;;;;;;16.63;100.00;100794.34;5280886;28;20055;-72
2022/09/10 06:04:10;;;;;;;16.17;14.02;;;;;;;16.66;100.00;100806.38;5284170;28;20027;-72
2022/09/10 06:06:41;;;;;;;17.05;14.13;;;;;;;16.65;100.00;100808.22;5291552;28;20015;-72
2022/09/10 06:09:13;;;;;;;14.75;13.25;;;;;;;16.67;100.00;100802.75;5285162;28;20024;-72
2022/09/10 06:11:47;;;;;;;20.15;14.20;;;;;;;16.75;100.00;100800.94;5287176;28;20345;-72
2022/09/10 06:14:19;;;;;;;17.88;14.43;;;;;;;16.69;100.00;100804.22;5290354;28;20118;-72
2022/09/10 06:16:53;;;;;;;15.25;13.65;;;;;;;16.64;100.00;100803.91;5287532;28;20036;-72
2022/09/10 06:19:24;;;;;;;17.95;15.13;;;;;;;16.69;100.00;100809.50;5291290;28;20056;-71
2022/09/10 06:21:56;;;;;;;15.82;14.20;;;;;;;16.68;100.00;100805.22;5287513;28;20044;-71
2022/09/10 06:24:27;;;;;;;15.80;14.20;;;;;;;16.70;100.00;100803.22;5281935;28;20040;-71
2022/09/10 06:26:58;;;;;;;18.17;15.57;;;;;;;16.67;100.00;100808.06;5284656;28;20028;-71
2022/09/10 06:29:30;;;;;;;17.45;15.77;;;;;;;16.65;100.00;100804.75;5282648;28;20031;-71
2022/09/10 06:32:01;;;;;;;18.88;15.35;;;;;;;16.68;100.00;100813.16;5285973;28;21076;-72
2022/09/10 06:34:34;;;;;;;17.80;16.00;;;;;;;16.68;100.00;100818.44;5286143;28;20389;-72
2022/09/10 06:37:05;;;;;;;17.95;15.63;;;;;;;16.66;100.00;100815.13;5287514;28;20122;-72
2022/09/10 06:39:37;;;;;;;18.08;15.90;;;;;;;16.62;100.00;100811.19;5287420;28;20036;-72
2022/09/10 06:42:08;;;;;;;18.70;16.45;;;;;;;16.66;100.00;100815.13;5286992;28;20052;-71
2022/09/10 06:44:39;;;;;;;18.40;16.42;;;;;;;16.66;100.00;100815.13;5287949;28;20028;-71
2022/09/10 06:47:12;;;;;;;19.33;17.08;;;;;;;16.69;100.00;100821.91;5288078;28;20031;-71
2022/09/10 06:49:43;;;;;;;19.40;17.42;;;;;;;16.68;100.00;100817.63;5287060;28;20021;-71
2022/09/10 06:52:15;;;;;;;19.13;16.80;;;;;;;16.71;100.00;100819.94;5281050;28;20030;-71
2022/09/10 06:54:47;;;;;;;17.27;15.48;;;;;;;16.73;100.00;100829.38;5286675;28;20474;-71
2022/09/10 06:57:18;;;;;;;17.83;15.85;;;;;;;16.70;100.00;100821.72;5288521;28;20031;-71
2022/09/10 06:59:49;;;;;;;19.50;16.40;;;;;;;16.74;100.00;100831.03;5288408;28;20020;-71
2022/09/10 07:02:20;;;;;;;19.05;17.02;;;;;;;16.73;100.00;100812.66;5284987;28;20048;-71
2022/09/10 07:04:52;;;;;;;22.08;17.48;;;;;;;16.81;100.00;100832.97;5289167;28;20095;-71
2022/09/10 07:07:23;;;;;;;18.67;16.80;;;;;;;16.82;100.00;100822.25;5290102;28;20081;-71
2022/09/10 07:09:54;;;;;;;16.77;15.07;;;;;;;16.86;100.00;100828.00;5281551;28;20035;-71
2022/09/10 07:12:26;;;;;;;18.70;16.58;;;;;;;16.87;100.00;100832.31;5282486;28;20020;-71
2022/09/10 07:14:57;;;;;;;16.58;14.82;;;;;;;16.85;100.00;100834.28;5287314;28;20561;-71
2022/09/10 07:17:28;;;;;;;15.85;14.20;;;;;;;16.86;100.00;100828.00;5285372;28;20486;-71
2022/09/10 07:20:00;;;;;;;15.60;14.07;;;;;;;16.85;100.00;100827.19;5279946;28;21051;-71
2022/09/10 07:22:31;;;;;;;14.55;13.25;;;;;;;16.80;100.00;100844.56;5282399;28;20428;-71
2022/09/10 07:25:02;;;;;;;16.52;14.98;;;;;;;16.81;100.00;100846.22;5288376;28;20032;-71
2022/09/10 07:27:34;;;;;;;17.42;14.15;;;;;;;16.84;100.00;100841.41;5282404;28;20470;-71
2022/09/10 07:30:05;;;;;;;14.77;13.40;;;;;;;16.85;100.00;100848.34;5280427;28;20027;-71
2022/09/10 07:32:39;;;;;;;17.30;14.77;;;;;;;16.80;100.00;100829.53;5280457;28;20036;-71
2022/09/10 07:35:10;;;;;;;16.17;14.57;;;;;;;16.82;100.00;100855.78;5285533;28;20028;-71
2022/09/10 07:37:44;;;;;;;15.55;14.02;;;;;;;16.94;100.00;100851.81;5278849;28;20404;-71
2022/09/10 07:40:15;;;;;;;17.58;15.73;;;;;;;16.97;100.00;100848.78;5277098;28;20112;-71
2022/09/10 07:42:47;;;;;;;17.13;15.52;;;;;;;17.04;100.00;100847.09;5290718;28;20123;-71
2022/09/10 07:45:18;;;;;;;15.88;14.45;;;;;;;17.11;100.00;100853.38;5282214;28;20037;-72
2022/09/10 07:47:50;;;;;;;17.30;15.60;;;;;;;17.16;100.00;100851.06;5277430;28;20039;-72
2022/09/10 07:50:21;;;;;;;16.23;14.65;;;;;;;17.21;100.00;100858.47;5287177;28;20033;-72
2022/09/10 07:52:52;;;;;;;16.42;14.68;;;;;;;17.33;100.00;100846.47;5288574;28;20039;-72
2022/09/10 07:55:23;;;;;;;16.48;14.98;;;;;;;17.37;100.00;100858.38;5290055;28;20032;-72
2022/09/10 07:57:55;;;;;;;17.40;15.82;;;;;;;17.37;100.00;100858.38;5289316;28;20045;-72
2022/09/10 08:00:26;;;;;;;17.52;15.82;;;;;;;17.39;100.00;100861.69;5290382;28;20017;-72
2022/09/10 08:02:57;;;;;;;17.67;16.05;;;;;;;17.41;100.00;100864.16;5290752;28;20043;-72
2022/09/10 08:05:28;;;;;;;17.30;15.93;;;;;;;17.29;100.00;100862.91;5293672;28;20463;-72
2022/09/10 08:08:00;;;;;;;16.77;15.30;;;;;;;17.43;100.00;100880.69;5287347;28;20404;-72
2022/09/10 08:10:31;;;;;;;16.83;15.35;;;;;;;17.50;100.00;100871.88;5282476;28;20021;-72
2022/09/10 08:13:02;;;;;;;18.17;16.60;;;;;;;17.58;100.00;100871.00;5287497;28;20044;-72
2022/09/10 08:15:34;;;;;;;16.48;14.88;;;;;;;17.60;100.00;100879.59;5290417;28;20071;-72
2022/09/10 08:18:06;;;;;;;16.73;15.13;;;;;;;17.58;100.00;100880.75;5278356;28;20778;-72
2022/09/10 08:20:38;;;;;;;18.70;16.90;;;;;;;17.64;100.00;100880.88;5289530;28;20027;-72
2022/09/10 08:23:10;;;;;;;16.50;15.10;;;;;;;17.67;100.00;100893.78;5286113;28;20027;-72
2022/09/10 08:25:48;;;;;;;18.17;16.42;;;;;;;17.79;100.00;100890.78;5285979;28;20073;-72
2022/09/10 08:28:21;;;;;;;17.55;15.85;;;;;;;17.62;100.00;100884.72;5286803;28;20033;-72
2022/09/10 08:31:06;;;;;;;17.15;15.48;;;;;;;17.82;100.00;100899.19;5291712;28;20585;-72
2022/09/10 08:33:38;;;;;;;16.83;15.35;;;;;;;17.75;100.00;100896.41;5285554;28;20035;-72
2022/09/10 08:36:10;;;;;;;15.57;14.13;;;;;;;17.84;100.00;100910.47;5287236;28;20044;-72
2022/09/10 08:38:43;;;;;;;15.25;13.93;;;;;;;17.90;100.00;100911.56;5279249;28;20297;-71
2022/09/10 08:41:27;;;;;;;14.55;13.25;;;;;;;17.96;100.00;100914.34;5284283;28;20122;-71
2022/09/10 08:44:22;;;;;;;13.52;12.25;;;;;;;18.13;100.00;100920.34;5286558;28;20036;-71
2022/09/10 08:47:20;;;;;;;14.68;13.10;;;;;;;18.19;100.00;100916.97;5279448;28;20119;-71
2022/09/10 08:50:00;;;;;;;13.15;12.05;;;;;;;18.06;100.00;100930.00;5285772;28;20074;-71
2022/09/10 08:53:08;;;;;;;13.02;11.82;;;;;;;18.22;100.00;100934.34;5288975;28;20025;-71
2022/09/10 08:55:41;;;;;;;12.40;11.30;;;;;;;17.94;100.00;100928.75;5289261;28;20028;-70
2022/09/10 08:58:22;;;;;;;12.63;11.52;;;;;;;17.96;100.00;100934.72;5285947;28;20378;-71
2022/09/10 09:00:57;;;;;;;11.65;10.40;;;;;;;17.95;100.00;100936.53;5289858;28;20024;-70
2022/09/10 09:03:35;;;;;;;11.98;10.77;;;;;;;17.85;100.00;100935.13;5291199;28;20059;-70
2022/09/10 09:06:20;;;;;;;12.32;10.15;;;;;;;17.84;100.00;100936.09;5289827;28;20032;-71
2022/09/10 09:08:53;;;;;;;11.82;9.88;;;;;;;17.77;100.00;100943.09;5289647;28;20131;-71
2022/09/10 09:11:30;;;;;;;;;;;;;;;18.23;100.00;100918.28;5287531;28;20020;-70
2022/09/10 09:14:01;;;;;;;11.70;10.52;;;;;;;17.84;100.00;100938.75;5288032;28;19923;-71
2022/09/10 09:16:44;;;;;;;12.73;11.43;;;;;;;17.92;100.00;100946.69;5287374;28;20036;-70
2022/09/10 09:19:27;;;;;;;14.88;12.32;;;;;;;17.94;100.00;100944.66;5285968;28;20025;-71
2022/09/10 09:22:18;;;;;;;;;;;;;;;18.52;100.00;100937.09;5285868;28;20031;-71
2022/09/10 09:24:56;;;;;;;14.05;12.15;;;;;;;18.09;100.00;100942.91;5284329;28;19942;-71
2022/09/10 09:27:32;;;;;;;14.02;12.60;;;;;;;18.10;100.00;100944.53;5286456;28;20024;-71
2022/09/10 09:30:06;;;;;;;14.07;12.77;;;;;;;18.22;100.00;100942.31;5287922;28;20019;-71
2022/09/10 09:32:41;;;;;;;15.18;12.57;;;;;;;18.25;100.00;100947.25;5283264;28;20410;-69
2022/09/10 09:35:22;;;;;;;16.50;12.45;;;;;;;18.38;100.00;100954.63;5290670;28;20032;-69
2022/09/10 09:38:05;;;;;;;13.40;12.18;;;;;;;18.52;100.00;100948.50;5269988;28;20032;-71
2022/09/10 09:40:46;;;;;;;13.73;12.32;;;;;;;18.56;100.00;100949.84;5286034;28;20032;-70
2022/09/10 09:43:30;;;;;;;13.50;12.10;;;;;;;18.76;100.00;100938.72;5289603;28;20038;-70
2022/09/10 09:46:03;;;;;;;14.55;11.18;;;;;;;18.65;100.00;100953.22;5284199;28;20044;-70
2022/09/10 09:48:38;;;;;;;12.63;11.52;;;;;;;18.77;100.00;100953.66;5284794;28;20093;-70
2022/09/10 09:51:14;;;;;;;11.85;10.52;;;;;;;18.67;100.00;100952.03;5286216;28;20107;-70
2022/09/10 09:53:48;;;;;;;12.48;10.88;;;;;;;18.60;100.00;100953.78;5288447;28;20567;-71
2022/09/10 09:56:26;;;;;;;11.48;10.32;;;;;;;18.66;100.00;100952.22;5283650;28;20047;-71
2022/09/10 09:59:07;;;;;;;10.93;9.80;;;;;;;18.70;100.00;100956.16;5284575;28;20395;-71
2022/09/10 10:01:41;;;;;;;11.05;9.93;;;;;;;18.54;100.00;100951.81;5286488;28;20044;-71
2022/09/10 10:04:22;;;;;;;11.98;9.40;;;;;;;18.63;100.00;100940.13;5286358;28;20035;-71
2022/09/10 10:06:56;;;;;;;12.65;10.25;;;;;;;18.58;100.00;100947.00;5286514;28;20500;-71
2022/09/10 10:09:30;;;;;;;13.05;9.70;;;;;;;18.62;100.00;100941.13;5283599;28;20031;-71
2022/09/10 10:12:04;;;;;;;13.90;9.93;;;;;;;18.66;100.00;100950.38;5284604;28;20043;-71
2022/09/10 10:14:40;;;;;;;10.13;9.13;;;;;;;18.68;100.00;100955.53;5284312;28;20035;-71
2022/09/10 10:17:29;;;;;;;10.40;9.27;;;;;;;18.92;100.00;100965.91;5284508;28;20025;-71
2022/09/10 10:20:07;;;;;;;12.65;10.48;;;;;;;18.94;100.00;100971.03;5286665;28;20066;-71
2022/09/10 10:22:41;;;;;;;10.90;9.80;;;;;;;19.01;100.00;100961.34;5287881;28;20452;-71
2022/09/10 10:25:40;;;;;;;10.90;9.85;;;;;;;19.31;100.00;100970.13;5284273;28;20021;-71
2022/09/10 10:28:22;;;;;;;11.65;9.18;;;;;;;19.33;100.00;100973.44;5283848;28;20513;-71
2022/09/10 10:30:58;;;;;;;11.98;9.20;;;;;;;19.19;100.00;100969.78;5285122;28;20042;-71
2022/09/10 10:33:32;;;;;;;11.27;9.48;;;;;;;19.26;100.00;100963.75;5283550;28;20390;-71
2022/09/10 10:36:26;;;;;;;9.80;8.32;;;;;;;19.34;100.00;100974.25;5286779;28;20310;-71
2022/09/10 10:39:19;;;;;;;12.02;9.32;;;;;;;19.32;100.00;100976.25;5285015;28;20028;-71
2022/09/10 10:41:55;;;;;;;10.35;8.55;;;;;;;19.34;100.00;100968.94;5281714;28;20023;-71
2022/09/10 10:44:54;;;;;;;9.52;8.52;;;;;;;19.38;100.00;100978.19;5283239;28;20039;-71
2022/09/10 10:47:42;;;;;;;7.90;7.03;;;;;;;19.43;100.00;100978.47;5284706;28;20107;-71
2022/09/10 10:50:14;;;;;;;8.57;6.78;;;;;;;19.29;100.00;100987.28;5281258;28;20558;-71
2022/09/10 10:53:06;;;;;;;10.60;6.57;;;;;;;19.42;100.00;100993.56;5285109;28;20020;-71
2022/09/10 10:56:10;;;;;;;10.33;6.57;;;;;;;19.27;100.00;100991.94;5283919;28;20056;-71
2022/09/10 10:59:03;;;;;;;11.27;6.45;;;;;;;19.32;100.00;100993.06;5283325;28;20127;-71
2022/09/10 11:01:42;;;;;;;9.85;6.40;;;;;;;19.04;100.00;100990.19;5284807;28;20047;-71
2022/09/10 11:04:23;;;;;;;8.63;5.95;;;;;;;19.08;100.00;100991.47;5287222;28;20380;-71
2022/09/10 11:07:03;;;;;;;8.10;5.70;;;;;;;18.99;100.00;100986.44;5287180;28;20052;-71
2022/09/10 11:09:42;;;;;;;10.95;6.45;;;;;;;18.90;100.00;100985.69;5286090;28;20021;-71
2022/09/10 11:12:24;;;;;;;18.23;7.07;;;;;;;18.90;100.00;100977.72;5287092;28;20034;-72
2022/09/10 11:15:09;;;;;;;12.32;6.57;;;;;;;18.88;100.00;100979.75;5283325;28;20081;-72
2022/09/10 11:17:50;;;;;;;10.65;6.18;;;;;;;18.87;100.00;100994.03;5291344;28;20027;-72
2022/09/10 11:20:33;;;;;;;12.00;6.85;;;;;;;18.89;100.00;100994.66;5290425;28;20100;-72
2022/09/10 11:23:11;;;;;;;;;;;;;;;19.42;100.00;100995.41;5291521;28;20027;-72
2022/09/10 11:26:15;;;;;;;10.18;5.95;;;;;;;19.04;100.00;100995.50;5294316;28;19916;-71
2022/09/10 11:28:53;;;;;;;11.85;6.63;;;;;;;18.95;100.00;100996.59;5294260;28;20044;-71
2022/09/10 11:31:34;;;;;;;8.88;5.75;;;;;;;18.93;100.00;100991.47;5293838;28;20036;-71
2022/09/10 11:34:23;;;;;;;8.20;5.45;;;;;;;18.93;100.00;100993.28;5296126;28;20039;-71
2022/09/10 11:37:31;;;;;;;10.32;5.78;;;;;;;18.81;100.00;100989.44;5297809;28;20044;-72
2022/09/10 11:40:11;;;;;;;7.53;5.50;;;;;;;18.77;100.00;101004.06;5224781;28;20067;-71
2022/09/10 11:42:50;;;;;;;8.68;4.45;;;;;;;18.68;100.00;101008.59;5296744;28;20505;-71
2022/09/10 11:45:35;;;;;;;8.23;4.05;;;;;;;18.80;100.00;101006.38;5290034;28;20033;-71
2022/09/10 11:48:29;;;;;;;5.25;3.90;;;;;;;18.89;100.00;101007.94;5294089;28;20037;-72